Dogpatch, Arkansas
Current Conditions -  °F | °C
As of 2:53 AM on Wednesday 28 Jan 2015 (Local Time) from KHRO Reporting Station
Clear Clear  
Wind Chill: 33°   Ceiling: Unl
Heat Index: 40°   Visibility: 10mi
Dew Point: 31°   Wind: 13mph
Humidity: 70%   Direction: 140°SE
Pressure: 30.13"   Gusts: NA
Location:  36.0842°N, 93.1502°W
Report Text: KHRO 280853Z AUTO 14011KT 10SM CLR 04/M01 A3013 RMK AO2 SLP201 T00441006 55004
Loading
Personal Weather Stations






























Interactive Weather Map New forecast layout! Learn more

10-Day Weather Forecast

Advertisements
Track Severe Weather on mobile